»·PEaware :: ASH5913 KPHX-KPSP

ASH5913 :: KPHX-KPSP

FLIGHT INFORMATION

Flight Status: Arrived
Operator:
Mesa Airlines
More flights by this operator :: More flights under this callsign
Pilot: Austin W. (7615)
Aircraft: CANADAIR CL-600 CRJ-900
(CRJ9)
More flights by this aircraft type
Origin: KPHX Phoenix Sky Harbor Intl
United States
Destination: KPSP Palm Springs Intl
United States
More flights between these airports :: More routes between these airports
Route: KEENS2 HRRBR CURIV J212 DECAS SBONO1
File this flight plan on PilotEdge
Remarks:
Altitude:
(Current/Filed)
28,000ft
Speed:
(Current/Filed)
450kts
Departed: 03-Jan-21 08:59 AM
Arrived: 03-Jan-21 09:48 AM
Distance/Time
Traveled:
226nm/0:49
Distance/Time
To Go:
Arrived

Flight Plot

Page will automatically refresh every two minutes.

Flight plan parsing failed; only flown route is shown


Map Options




Map Legend


Flown Route
Filed Route
Departure Airport
Arrival Airport
Navaid (VOR, NDB)
Fix

Horizontal Profiles

Position Reports

Time Latitude Longitude Heading Altitude Ground
Speed
03-Jan-21 08:33 33.436471 -111.997325 88 1142ft 0kts
03-Jan-21 08:34 33.436471 -111.997325 88 1142ft 0kts
03-Jan-21 08:35 33.436471 -111.997325 88 1142ft 0kts
03-Jan-21 08:36 33.436471 -111.997325 88 1142ft 0kts
03-Jan-21 08:37 33.436471 -111.997325 88 1142ft 0kts
03-Jan-21 08:38 33.436471 -111.997325 88 1142ft 0kts
03-Jan-21 08:39 33.436471 -111.997325 88 1142ft 0kts
03-Jan-21 08:40 33.436471 -111.997325 88 1142ft 0kts
03-Jan-21 08:41 33.436471 -111.997325 88 1142ft 0kts
03-Jan-21 08:42 33.436471 -111.997325 88 1142ft 0kts
03-Jan-21 08:43 33.436473 -111.997486 91 1142ft 2kts
03-Jan-21 08:44 33.436974 -111.997804 179 1142ft 2kts
03-Jan-21 08:45 33.437172 -111.997806 179 1142ft 0kts
03-Jan-21 08:46 33.437172 -111.997806 179 1142ft 0kts
03-Jan-21 08:47 33.437766 -111.997834 359 1142ft 9kts
03-Jan-21 08:48 33.438160 -111.997821 1 1142ft 0kts
03-Jan-21 08:49 33.438161 -111.997821 1 1142ft 0kts
03-Jan-21 08:50 33.438981 -112.000522 271 1142ft 20kts
03-Jan-21 08:52 33.439050 -112.004155 265 1142ft 3kts
03-Jan-21 08:53 33.438986 -112.007750 269 1142ft 16kts
03-Jan-21 08:54 33.438993 -112.015547 269 1142ft 28kts
03-Jan-21 08:55 33.438983 -112.023751 269 1142ft 20kts
03-Jan-21 08:56 33.439055 -112.029318 296 1142ft 12kts
03-Jan-21 08:57 33.440844 -112.029082 88 1142ft 0kts
03-Jan-21 08:58 33.440844 -112.029079 88 1142ft 0kts
03-Jan-21 08:59 33.440857 -112.027579 90 1142ft 43kts
03-Jan-21 09:00 33.441179 -111.983878 87 2395ft 162kts
03-Jan-21 09:01 33.438157 -111.919790 94 4587ft 227kts
03-Jan-21 09:02 33.408147 -111.850684 152 6956ft 276kts
03-Jan-21 09:03 33.356303 -111.893854 276 10101ft 277kts
03-Jan-21 09:04 33.361619 -111.984728 278 13249ft 280kts
03-Jan-21 09:05 33.374419 -112.088771 280 15226ft 332kts
03-Jan-21 09:05 33.388383 -112.181478 281 17640ft 346kts
03-Jan-21 09:06 33.405898 -112.297269 281 20278ft 360kts
03-Jan-21 09:08 33.428126 -112.446507 281 22081ft 406kts
03-Jan-21 09:09 33.446463 -112.574056 281 25925ft 372kts
03-Jan-21 09:09 33.452427 -112.677446 272 27186ft 385kts
03-Jan-21 09:10 33.453293 -112.811174 279 28116ft 410kts
03-Jan-21 09:11 33.480171 -112.946547 285 28304ft 421kts
03-Jan-21 09:12 33.506365 -113.083814 284 28303ft 429kts
03-Jan-21 09:13 33.532211 -113.225346 283 28303ft 434kts
03-Jan-21 09:14 33.557819 -113.367430 283 28293ft 435kts
03-Jan-21 09:15 33.583112 -113.507164 283 28293ft 422kts
03-Jan-21 09:16 33.609313 -113.645901 284 28296ft 434kts
03-Jan-21 09:17 33.636463 -113.789445 284 28304ft 447kts
03-Jan-21 09:18 33.662880 -113.933755 284 28304ft 435kts
03-Jan-21 09:19 33.688881 -114.073762 283 28304ft 426kts
03-Jan-21 09:20 33.713587 -114.210801 283 28303ft 408kts
03-Jan-21 09:21 33.736536 -114.341178 283 27857ft 398kts
03-Jan-21 09:22 33.759956 -114.473679 283 26937ft 403kts
03-Jan-21 09:23 33.778288 -114.605455 274 26034ft 398kts
03-Jan-21 09:24 33.783721 -114.735975 275 24264ft 389kts
03-Jan-21 09:25 33.790840 -114.864147 275 22337ft 378kts
03-Jan-21 09:26 33.797805 -114.987669 275 19674ft 363kts
03-Jan-21 09:27 33.804532 -115.106518 275 17183ft 349kts
03-Jan-21 09:28 33.810937 -115.220627 275 14698ft 335kts
03-Jan-21 09:29 33.816838 -115.330709 275 12693ft 325kts
03-Jan-21 09:30 33.822409 -115.437853 275 11517ft 319kts
03-Jan-21 09:31 33.849969 -115.536351 292 11020ft 306kts
03-Jan-21 09:32 33.880374 -115.631140 291 11020ft 305kts
03-Jan-21 09:33 33.911319 -115.728988 291 11023ft 321kts
03-Jan-21 09:34 33.911898 -115.836393 267 11015ft 319kts
03-Jan-21 09:35 33.903859 -115.934953 265 11008ft 279kts
03-Jan-21 09:36 33.864489 -116.014994 242 10832ft 278kts
03-Jan-21 09:37 33.824638 -116.096262 240 8620ft 282kts
03-Jan-21 09:38 33.767204 -116.150369 202 6659ft 272kts
03-Jan-21 09:39 33.706720 -116.183644 205 5169ft 227kts
03-Jan-21 09:40 33.687237 -116.245431 261 4036ft 199kts
03-Jan-21 09:41 33.680029 -116.312338 261 3994ft 205kts
03-Jan-21 09:42 33.686617 -116.375327 323 3720ft 184kts
03-Jan-21 09:43 33.726559 -116.413094 319 3311ft 168kts
03-Jan-21 09:44 33.762890 -116.449095 323 2224ft 155kts
03-Jan-21 09:45 33.796011 -116.477651 322 1129ft 140kts
03-Jan-21 09:46 33.827293 -116.505561 323 485ft 121kts
03-Jan-21 09:47 33.836349 -116.514686 225 484ft 0kts
03-Jan-21 09:48 33.835990 -116.514906 197 484ft 4kts
03-Jan-21 09:49 33.833827 -116.513503 143 484ft 13kts
03-Jan-21 09:50 33.830725 -116.510725 143 484ft 14kts
03-Jan-21 09:51 33.827395 -116.507682 143 484ft 14kts
03-Jan-21 09:52 33.824640 -116.506117 142 484ft 11kts
03-Jan-21 09:53 33.822969 -116.504926 246 484ft 1kts
03-Jan-21 09:54 33.823116 -116.505755 285 484ft 0kts
03-Jan-21 09:55 33.823116 -116.505756 285 484ft 0kts
03-Jan-21 09:56 33.823116 -116.505756 285 484ft 0kts
03-Jan-21 09:57 33.823116 -116.505756 285 484ft 0kts
03-Jan-21 09:58 33.823116 -116.505756 285 484ft 0kts
03-Jan-21 09:59 33.823116 -116.505756 285 484ft 0kts
03-Jan-21 10:00 33.823116 -116.505756 285 484ft 0kts
03-Jan-21 10:01 33.823116 -116.505756 285 484ft 0kts

Navigation Log

Ident Type
Flight plan parsing failed, navigation log unavailable